Terminal Aerodrome Forecast
Issued by NWS

Home | Current Version | Previous Version | Graphics & Text | Print | Product List | Glossary On
Versions: 1 2 3 4 5 6 7 8 9 10 11 12 13 14 15 16 17 18 19 20 21 22 23 24 25
835
FTUS43 KLOT 031139
TAFDPA
TAF
KDPA 031139Z 0312/0412 22012KT 6SM BR SCT005 BKN040
     FM031300 23013G19KT P6SM OVC008
     FM031600 23014G23KT P6SM OVC010
     FM031900 28015G24KT P6SM VCSH OVC012
      TEMPO 0319/0321 5SM -SHRASN
     FM040100 29012G18KT P6SM OVC010=

USA.gov is the U.S. government's official web portal to all federal, state and local government web resources and services.